sensor_id;sensor_type;location;lat;lon;timestamp;P1;durP1;ratioP1;P2;durP2;ratioP2
76788;SDS011;65740;52.464;13.446;2023-08-20T00:00:52;13.83;;;12.93;;
76788;SDS011;65740;52.464;13.446;2023-08-20T00:03:18;14.43;;;13.50;;
76788;SDS011;65740;52.464;13.446;2023-08-20T00:05:43;15.10;;;14.07;;
76788;SDS011;65740;52.464;13.446;2023-08-20T00:08:09;14.97;;;13.97;;
76788;SDS011;65740;52.464;13.446;2023-08-20T00:10:35;14.23;;;13.23;;
76788;SDS011;65740;52.464;13.446;2023-08-20T00:13:00;15.00;;;14.00;;
76788;SDS011;65740;52.464;13.446;2023-08-20T00:15:26;14.47;;;13.47;;
76788;SDS011;65740;52.464;13.446;2023-08-20T00:17:53;14.30;;;13.40;;
76788;SDS011;65740;52.464;13.446;2023-08-20T00:20:20;14.30;;;13.30;;
76788;SDS011;65740;52.464;13.446;2023-08-20T00:22:46;14.70;;;13.70;;
76788;SDS011;65740;52.464;13.446;2023-08-20T00:25:13;14.80;;;13.80;;
76788;SDS011;65740;52.464;13.446;2023-08-20T00:27:40;15.70;;;14.63;;
76788;SDS011;65740;52.464;13.446;2023-08-20T00:30:06;15.17;;;14.17;;
76788;SDS011;65740;52.464;13.446;2023-08-20T00:32:33;15.90;;;14.80;;
76788;SDS011;65740;52.464;13.446;2023-08-20T00:34:59;14.70;;;13.70;;
76788;SDS011;65740;52.464;13.446;2023-08-20T00:37:25;15.33;;;14.23;;
76788;SDS011;65740;52.464;13.446;2023-08-20T00:39:51;15.87;;;14.47;;
76788;SDS011;65740;52.464;13.446;2023-08-20T00:42:16;14.63;;;13.63;;
76788;SDS011;65740;52.464;13.446;2023-08-20T00:44:42;14.53;;;13.43;;
76788;SDS011;65740;52.464;13.446;2023-08-20T00:47:09;14.60;;;13.70;;
76788;SDS011;65740;52.464;13.446;2023-08-20T00:49:35;14.47;;;13.47;;
76788;SDS011;65740;52.464;13.446;2023-08-20T00:52:01;14.63;;;13.73;;
76788;SDS011;65740;52.464;13.446;2023-08-20T00:54:28;15.27;;;14.27;;
76788;SDS011;65740;52.464;13.446;2023-08-20T00:56:54;14.37;;;13.37;;
76788;SDS011;65740;52.464;13.446;2023-08-20T00:59:20;14.47;;;13.47;;
76788;SDS011;65740;52.464;13.446;2023-08-20T01:01:47;14.53;;;13.60;;
76788;SDS011;65740;52.464;13.446;2023-08-20T01:04:13;15.30;;;14.27;;
76788;SDS011;65740;52.464;13.446;2023-08-20T01:12:17;15.30;;;14.30;;
76788;SDS011;65740;52.464;13.446;2023-08-20T01:14:45;14.77;;;13.77;;
76788;SDS011;65740;52.464;13.446;2023-08-20T01:17:10;15.30;;;14.30;;
76788;SDS011;65740;52.464;13.446;2023-08-20T01:19:36;14.33;;;13.43;;
76788;SDS011;65740;52.464;13.446;2023-08-20T01:22:15;15.20;;;14.10;;
76788;SDS011;65740;52.464;13.446;2023-08-20T01:24:59;15.30;;;14.20;;
76788;SDS011;65740;52.464;13.446;2023-08-20T01:30:09;15.27;;;14.17;;
76788;SDS011;65740;52.464;13.446;2023-08-20T01:32:37;15.10;;;14.10;;
76788;SDS011;65740;52.464;13.446;2023-08-20T01:35:06;14.97;;;13.97;;
76788;SDS011;65740;52.464;13.446;2023-08-20T01:37:42;16.37;;;15.17;;
76788;SDS011;65740;52.464;13.446;2023-08-20T01:40:08;15.43;;;14.43;;
76788;SDS011;65740;52.464;13.446;2023-08-20T01:42:35;15.10;;;14.00;;
76788;SDS011;65740;52.464;13.446;2023-08-20T01:45:05;15.73;;;14.63;;
76788;SDS011;65740;52.464;13.446;2023-08-20T01:47:34;16.40;;;15.10;;
76788;SDS011;65740;52.464;13.446;2023-08-20T01:50:00;16.60;;;15.50;;
76788;SDS011;65740;52.464;13.446;2023-08-20T01:52:26;17.87;;;16.57;;
76788;SDS011;65740;52.464;13.446;2023-08-20T01:54:52;16.50;;;15.30;;
76788;SDS011;65740;52.464;13.446;2023-08-20T01:57:18;16.67;;;15.57;;
76788;SDS011;65740;52.464;13.446;2023-08-20T01:59:44;15.90;;;14.80;;
76788;SDS011;65740;52.464;13.446;2023-08-20T02:02:09;16.87;;;15.67;;
76788;SDS011;65740;52.464;13.446;2023-08-20T02:04:35;16.57;;;15.37;;
76788;SDS011;65740;52.464;13.446;2023-08-20T02:07:01;15.50;;;14.40;;
76788;SDS011;65740;52.464;13.446;2023-08-20T02:09:26;16.33;;;15.13;;
76788;SDS011;65740;52.464;13.446;2023-08-20T02:11:52;17.07;;;15.77;;
76788;SDS011;65740;52.464;13.446;2023-08-20T02:14:18;17.27;;;16.03;;
76788;SDS011;65740;52.464;13.446;2023-08-20T02:16:43;16.27;;;15.13;;
76788;SDS011;65740;52.464;13.446;2023-08-20T02:19:11;17.00;;;15.80;;
76788;SDS011;65740;52.464;13.446;2023-08-20T02:21:36;15.77;;;14.60;;
76788;SDS011;65740;52.464;13.446;2023-08-20T02:24:02;16.50;;;15.27;;
76788;SDS011;65740;52.464;13.446;2023-08-20T02:26:28;16.17;;;14.80;;
76788;SDS011;65740;52.464;13.446;2023-08-20T02:28:54;15.70;;;14.60;;
76788;SDS011;65740;52.464;13.446;2023-08-20T02:31:19;15.60;;;14.50;;
76788;SDS011;65740;52.464;13.446;2023-08-20T02:33:45;14.73;;;13.70;;
76788;SDS011;65740;52.464;13.446;2023-08-20T02:36:12;16.33;;;15.23;;
76788;SDS011;65740;52.464;13.446;2023-08-20T02:38:37;16.30;;;15.10;;
76788;SDS011;65740;52.464;13.446;2023-08-20T02:41:03;16.80;;;15.53;;
76788;SDS011;65740;52.464;13.446;2023-08-20T02:43:28;16.70;;;15.43;;
76788;SDS011;65740;52.464;13.446;2023-08-20T02:45:54;16.33;;;15.23;;
76788;SDS011;65740;52.464;13.446;2023-08-20T02:48:20;15.77;;;14.57;;
76788;SDS011;65740;52.464;13.446;2023-08-20T02:50:46;15.50;;;14.40;;
76788;SDS011;65740;52.464;13.446;2023-08-20T02:53:11;16.67;;;15.47;;
76788;SDS011;65740;52.464;13.446;2023-08-20T02:55:37;15.70;;;14.60;;
76788;SDS011;65740;52.464;13.446;2023-08-20T02:58:03;15.80;;;14.70;;
76788;SDS011;65740;52.464;13.446;2023-08-20T03:00:29;16.03;;;14.83;;
76788;SDS011;65740;52.464;13.446;2023-08-20T03:02:55;16.20;;;15.00;;
76788;SDS011;65740;52.464;13.446;2023-08-20T03:05:21;15.83;;;14.73;;
76788;SDS011;65740;52.464;13.446;2023-08-20T03:07:47;15.07;;;13.97;;
76788;SDS011;65740;52.464;13.446;2023-08-20T03:10:13;15.10;;;14.00;;
76788;SDS011;65740;52.464;13.446;2023-08-20T03:12:38;15.70;;;14.50;;
76788;SDS011;65740;52.464;13.446;2023-08-20T03:15:04;15.93;;;14.80;;
76788;SDS011;65740;52.464;13.446;2023-08-20T03:17:30;15.80;;;14.70;;
76788;SDS011;65740;52.464;13.446;2023-08-20T03:19:56;16.60;;;15.30;;
76788;SDS011;65740;52.464;13.446;2023-08-20T03:22:23;14.83;;;13.80;;
76788;SDS011;65740;52.464;13.446;2023-08-20T03:24:50;16.27;;;15.07;;
76788;SDS011;65740;52.464;13.446;2023-08-20T03:27:16;16.00;;;14.80;;
76788;SDS011;65740;52.464;13.446;2023-08-20T03:29:41;16.20;;;14.60;;
76788;SDS011;65740;52.464;13.446;2023-08-20T03:32:07;15.40;;;14.30;;
76788;SDS011;65740;52.464;13.446;2023-08-20T03:34:33;15.13;;;14.03;;
76788;SDS011;65740;52.464;13.446;2023-08-20T03:36:58;15.73;;;14.60;;
76788;SDS011;65740;52.464;13.446;2023-08-20T03:39:24;16.50;;;15.20;;
76788;SDS011;65740;52.464;13.446;2023-08-20T03:41:50;17.00;;;15.70;;
76788;SDS011;65740;52.464;13.446;2023-08-20T03:44:16;16.37;;;15.20;;
76788;SDS011;65740;52.464;13.446;2023-08-20T03:46:42;15.63;;;14.53;;
76788;SDS011;65740;52.464;13.446;2023-08-20T03:49:08;14.80;;;13.80;;
76788;SDS011;65740;52.464;13.446;2023-08-20T03:51:33;15.33;;;14.33;;
76788;SDS011;65740;52.464;13.446;2023-08-20T03:53:59;15.37;;;14.27;;
76788;SDS011;65740;52.464;13.446;2023-08-20T03:56:24;15.27;;;14.17;;
76788;SDS011;65740;52.464;13.446;2023-08-20T03:58:50;14.53;;;13.50;;
76788;SDS011;65740;52.464;13.446;2023-08-20T04:01:15;15.37;;;13.97;;
76788;SDS011;65740;52.464;13.446;2023-08-20T04:03:41;15.53;;;14.43;;
76788;SDS011;65740;52.464;13.446;2023-08-20T04:06:06;15.00;;;13.90;;
76788;SDS011;65740;52.464;13.446;2023-08-20T04:08:32;14.40;;;13.40;;
76788;SDS011;65740;52.464;13.446;2023-08-20T04:10:58;14.70;;;13.60;;
76788;SDS011;65740;52.464;13.446;2023-08-20T04:13:23;14.80;;;13.60;;
76788;SDS011;65740;52.464;13.446;2023-08-20T04:15:49;15.60;;;14.50;;
76788;SDS011;65740;52.464;13.446;2023-08-20T04:18:15;14.10;;;13.20;;
76788;SDS011;65740;52.464;13.446;2023-08-20T04:20:40;14.80;;;13.70;;
76788;SDS011;65740;52.464;13.446;2023-08-20T04:23:06;14.70;;;13.70;;
76788;SDS011;65740;52.464;13.446;2023-08-20T04:25:31;14.70;;;13.60;;
76788;SDS011;65740;52.464;13.446;2023-08-20T04:27:57;14.70;;;13.60;;
76788;SDS011;65740;52.464;13.446;2023-08-20T04:30:22;15.30;;;14.10;;
76788;SDS011;65740;52.464;13.446;2023-08-20T04:32:48;15.80;;;14.63;;
76788;SDS011;65740;52.464;13.446;2023-08-20T04:35:13;15.40;;;14.20;;
76788;SDS011;65740;52.464;13.446;2023-08-20T04:37:39;15.47;;;14.40;;
76788;SDS011;65740;52.464;13.446;2023-08-20T04:40:05;14.80;;;13.70;;
76788;SDS011;65740;52.464;13.446;2023-08-20T04:42:32;14.47;;;13.27;;
76788;SDS011;65740;52.464;13.446;2023-08-20T04:44:58;14.63;;;13.53;;
76788;SDS011;65740;52.464;13.446;2023-08-20T04:47:24;15.40;;;14.00;;
76788;SDS011;65740;52.464;13.446;2023-08-20T04:49:49;13.80;;;12.80;;
76788;SDS011;65740;52.464;13.446;2023-08-20T04:52:15;15.20;;;13.87;;
76788;SDS011;65740;52.464;13.446;2023-08-20T04:54:41;14.93;;;13.83;;
76788;SDS011;65740;52.464;13.446;2023-08-20T04:57:06;15.70;;;14.60;;
76788;SDS011;65740;52.464;13.446;2023-08-20T04:59:32;15.57;;;14.37;;
76788;SDS011;65740;52.464;13.446;2023-08-20T05:01:57;14.90;;;13.80;;
76788;SDS011;65740;52.464;13.446;2023-08-20T05:04:23;14.63;;;13.53;;
76788;SDS011;65740;52.464;13.446;2023-08-20T05:06:49;15.97;;;14.77;;
76788;SDS011;65740;52.464;13.446;2023-08-20T05:09:14;14.07;;;13.00;;
76788;SDS011;65740;52.464;13.446;2023-08-20T05:11:41;14.63;;;13.53;;
76788;SDS011;65740;52.464;13.446;2023-08-20T05:14:07;14.57;;;13.50;;
76788;SDS011;65740;52.464;13.446;2023-08-20T05:16:32;14.80;;;13.80;;
76788;SDS011;65740;52.464;13.446;2023-08-20T05:18:58;13.23;;;12.23;;
76788;SDS011;65740;52.464;13.446;2023-08-20T05:21:23;15.27;;;14.17;;
76788;SDS011;65740;52.464;13.446;2023-08-20T05:23:49;14.57;;;13.53;;
76788;SDS011;65740;52.464;13.446;2023-08-20T05:26:14;14.43;;;13.43;;
76788;SDS011;65740;52.464;13.446;2023-08-20T05:28:40;15.17;;;14.07;;
76788;SDS011;65740;52.464;13.446;2023-08-20T05:31:06;14.10;;;13.10;;
76788;SDS011;65740;52.464;13.446;2023-08-20T05:33:31;14.17;;;13.00;;
76788;SDS011;65740;52.464;13.446;2023-08-20T05:35:57;14.30;;;13.33;;
76788;SDS011;65740;52.464;13.446;2023-08-20T05:38:24;15.20;;;14.10;;
76788;SDS011;65740;52.464;13.446;2023-08-20T05:40:50;13.80;;;12.77;;
76788;SDS011;65740;52.464;13.446;2023-08-20T05:43:15;15.70;;;14.40;;
76788;SDS011;65740;52.464;13.446;2023-08-20T05:45:41;15.60;;;14.40;;
76788;SDS011;65740;52.464;13.446;2023-08-20T05:48:06;14.63;;;13.53;;
76788;SDS011;65740;52.464;13.446;2023-08-20T05:50:32;14.90;;;13.90;;
76788;SDS011;65740;52.464;13.446;2023-08-20T05:52:58;14.70;;;13.57;;
76788;SDS011;65740;52.464;13.446;2023-08-20T05:55:24;14.40;;;13.30;;
76788;SDS011;65740;52.464;13.446;2023-08-20T05:57:49;14.63;;;13.63;;
76788;SDS011;65740;52.464;13.446;2023-08-20T06:00:15;15.10;;;14.00;;
76788;SDS011;65740;52.464;13.446;2023-08-20T06:02:42;15.40;;;14.30;;
76788;SDS011;65740;52.464;13.446;2023-08-20T06:05:08;15.00;;;13.90;;
76788;SDS011;65740;52.464;13.446;2023-08-20T06:07:34;14.50;;;13.50;;
76788;SDS011;65740;52.464;13.446;2023-08-20T06:10:00;13.17;;;12.13;;
76788;SDS011;65740;52.464;13.446;2023-08-20T06:12:25;14.00;;;13.00;;
76788;SDS011;65740;52.464;13.446;2023-08-20T06:14:51;14.67;;;13.73;;
76788;SDS011;65740;52.464;13.446;2023-08-20T06:17:17;14.43;;;13.50;;
76788;SDS011;65740;52.464;13.446;2023-08-20T06:19:42;16.17;;;14.77;;
76788;SDS011;65740;52.464;13.446;2023-08-20T06:22:09;16.27;;;15.07;;
76788;SDS011;65740;52.464;13.446;2023-08-20T06:24:34;14.67;;;13.67;;
76788;SDS011;65740;52.464;13.446;2023-08-20T06:27:00;14.20;;;13.10;;
76788;SDS011;65740;52.464;13.446;2023-08-20T06:29:25;15.23;;;14.13;;
76788;SDS011;65740;52.464;13.446;2023-08-20T06:31:51;15.20;;;13.90;;
76788;SDS011;65740;52.464;13.446;2023-08-20T06:34:16;14.07;;;13.07;;
76788;SDS011;65740;52.464;13.446;2023-08-20T06:36:42;15.13;;;14.00;;
76788;SDS011;65740;52.464;13.446;2023-08-20T06:39:08;15.43;;;14.07;;
76788;SDS011;65740;52.464;13.446;2023-08-20T06:41:34;15.30;;;14.00;;
76788;SDS011;65740;52.464;13.446;2023-08-20T06:44:00;14.13;;;13.10;;
76788;SDS011;65740;52.464;13.446;2023-08-20T06:46:26;15.00;;;13.80;;
76788;SDS011;65740;52.464;13.446;2023-08-20T06:48:52;13.43;;;12.43;;
76788;SDS011;65740;52.464;13.446;2023-08-20T06:51:21;14.63;;;13.53;;
76788;SDS011;65740;52.464;13.446;2023-08-20T06:53:50;14.60;;;13.53;;
76788;SDS011;65740;52.464;13.446;2023-08-20T06:56:16;15.67;;;14.57;;
76788;SDS011;65740;52.464;13.446;2023-08-20T06:58:42;16.00;;;14.60;;
76788;SDS011;65740;52.464;13.446;2023-08-20T07:01:07;13.73;;;12.83;;
76788;SDS011;65740;52.464;13.446;2023-08-20T07:03:37;15.47;;;14.37;;
76788;SDS011;65740;52.464;13.446;2023-08-20T07:06:07;14.23;;;13.13;;
76788;SDS011;65740;52.464;13.446;2023-08-20T07:08:34;15.20;;;14.10;;
76788;SDS011;65740;52.464;13.446;2023-08-20T07:11:00;15.20;;;14.00;;
76788;SDS011;65740;52.464;13.446;2023-08-20T07:13:26;16.27;;;15.00;;
76788;SDS011;65740;52.464;13.446;2023-08-20T07:15:51;14.93;;;13.73;;
76788;SDS011;65740;52.464;13.446;2023-08-20T07:18:17;15.40;;;14.20;;
76788;SDS011;65740;52.464;13.446;2023-08-20T07:20:43;14.30;;;13.27;;
76788;SDS011;65740;52.464;13.446;2023-08-20T07:23:09;15.57;;;14.17;;
76788;SDS011;65740;52.464;13.446;2023-08-20T07:25:40;15.73;;;14.50;;
76788;SDS011;65740;52.464;13.446;2023-08-20T07:28:06;15.13;;;13.93;;
76788;SDS011;65740;52.464;13.446;2023-08-20T07:30:33;15.00;;;13.80;;
76788;SDS011;65740;52.464;13.446;2023-08-20T07:32:59;15.67;;;14.30;;
76788;SDS011;65740;52.464;13.446;2023-08-20T07:35:25;14.70;;;13.70;;
76788;SDS011;65740;52.464;13.446;2023-08-20T07:37:51;13.60;;;12.60;;
76788;SDS011;65740;52.464;13.446;2023-08-20T07:40:17;16.30;;;15.10;;
76788;SDS011;65740;52.464;13.446;2023-08-20T07:42:43;15.10;;;14.00;;
76788;SDS011;65740;52.464;13.446;2023-08-20T07:45:09;15.80;;;14.50;;
76788;SDS011;65740;52.464;13.446;2023-08-20T07:47:37;14.40;;;13.30;;
76788;SDS011;65740;52.464;13.446;2023-08-20T07:50:04;16.33;;;15.10;;
76788;SDS011;65740;52.464;13.446;2023-08-20T07:52:30;15.67;;;14.40;;
76788;SDS011;65740;52.464;13.446;2023-08-20T07:54:59;15.30;;;14.07;;
76788;SDS011;65740;52.464;13.446;2023-08-20T07:57:25;15.97;;;14.77;;
76788;SDS011;65740;52.464;13.446;2023-08-20T07:59:50;14.50;;;13.40;;
76788;SDS011;65740;52.464;13.446;2023-08-20T08:02:16;15.23;;;13.83;;
76788;SDS011;65740;52.464;13.446;2023-08-20T08:04:42;13.80;;;12.80;;
76788;SDS011;65740;52.464;13.446;2023-08-20T08:07:08;15.93;;;14.63;;
76788;SDS011;65740;52.464;13.446;2023-08-20T08:09:34;15.20;;;14.00;;
76788;SDS011;65740;52.464;13.446;2023-08-20T08:12:00;14.37;;;13.37;;
76788;SDS011;65740;52.464;13.446;2023-08-20T08:14:26;18.80;;;14.93;;
76788;SDS011;65740;52.464;13.446;2023-08-20T08:16:52;15.90;;;14.50;;
76788;SDS011;65740;52.464;13.446;2023-08-20T08:19:18;16.07;;;14.63;;
76788;SDS011;65740;52.464;13.446;2023-08-20T08:21:45;15.93;;;14.73;;
76788;SDS011;65740;52.464;13.446;2023-08-20T08:24:11;15.70;;;14.50;;
76788;SDS011;65740;52.464;13.446;2023-08-20T08:26:38;17.17;;;15.50;;
76788;SDS011;65740;52.464;13.446;2023-08-20T08:29:04;16.50;;;15.13;;
76788;SDS011;65740;52.464;13.446;2023-08-20T08:31:31;17.00;;;15.50;;
76788;SDS011;65740;52.464;13.446;2023-08-20T08:33:57;15.13;;;13.93;;
76788;SDS011;65740;52.464;13.446;2023-08-20T08:36:22;15.43;;;14.20;;
76788;SDS011;65740;52.464;13.446;2023-08-20T08:38:50;15.93;;;14.63;;
76788;SDS011;65740;52.464;13.446;2023-08-20T08:41:20;15.93;;;14.60;;
76788;SDS011;65740;52.464;13.446;2023-08-20T08:43:49;15.97;;;14.60;;
76788;SDS011;65740;52.464;13.446;2023-08-20T08:46:15;16.20;;;15.00;;
76788;SDS011;65740;52.464;13.446;2023-08-20T08:48:44;15.23;;;14.03;;
76788;SDS011;65740;52.464;13.446;2023-08-20T08:51:12;15.60;;;14.07;;
76788;SDS011;65740;52.464;13.446;2023-08-20T08:53:38;14.67;;;13.60;;
76788;SDS011;65740;52.464;13.446;2023-08-20T08:56:03;14.93;;;13.73;;
76788;SDS011;65740;52.464;13.446;2023-08-20T08:58:30;16.53;;;14.73;;
76788;SDS011;65740;52.464;13.446;2023-08-20T09:00:57;14.33;;;13.23;;
76788;SDS011;65740;52.464;13.446;2023-08-20T09:03:23;13.23;;;12.03;;
76788;SDS011;65740;52.464;13.446;2023-08-20T09:05:57;14.30;;;13.07;;
76788;SDS011;65740;52.464;13.446;2023-08-20T09:08:29;14.30;;;13.10;;
76788;SDS011;65740;52.464;13.446;2023-08-20T09:10:56;13.53;;;12.23;;
76788;SDS011;65740;52.464;13.446;2023-08-20T09:13:23;12.70;;;11.70;;
76788;SDS011;65740;52.464;13.446;2023-08-20T09:16:02;13.23;;;12.20;;
76788;SDS011;65740;52.464;13.446;2023-08-20T09:18:38;12.77;;;11.87;;
76788;SDS011;65740;52.464;13.446;2023-08-20T09:21:07;12.93;;;11.73;;
76788;SDS011;65740;52.464;13.446;2023-08-20T09:23:34;14.03;;;12.90;;
76788;SDS011;65740;52.464;13.446;2023-08-20T09:26:04;13.03;;;12.03;;
76788;SDS011;65740;52.464;13.446;2023-08-20T09:28:40;12.27;;;11.37;;
76788;SDS011;65740;52.464;13.446;2023-08-20T09:31:07;13.23;;;12.03;;
76788;SDS011;65740;52.464;13.446;2023-08-20T09:33:33;11.70;;;10.90;;
76788;SDS011;65740;52.464;13.446;2023-08-20T09:35:59;12.30;;;11.33;;
76788;SDS011;65740;52.464;13.446;2023-08-20T09:38:24;12.40;;;11.50;;
76788;SDS011;65740;52.464;13.446;2023-08-20T09:40:51;11.90;;;11.00;;
76788;SDS011;65740;52.464;13.446;2023-08-20T09:43:21;11.63;;;10.73;;
76788;SDS011;65740;52.464;13.446;2023-08-20T09:45:53;16.80;;;12.53;;
76788;SDS011;65740;52.464;13.446;2023-08-20T09:48:20;11.93;;;10.83;;
76788;SDS011;65740;52.464;13.446;2023-08-20T09:50:47;12.37;;;11.37;;
76788;SDS011;65740;52.464;13.446;2023-08-20T09:55:51;12.10;;;11.00;;
76788;SDS011;65740;52.464;13.446;2023-08-20T09:58:17;11.47;;;10.67;;
76788;SDS011;65740;52.464;13.446;2023-08-20T10:00:48;12.07;;;11.00;;
76788;SDS011;65740;52.464;13.446;2023-08-20T10:03:15;12.07;;;11.10;;
76788;SDS011;65740;52.464;13.446;2023-08-20T10:05:41;10.60;;;9.90;;
76788;SDS011;65740;52.464;13.446;2023-08-20T10:08:07;10.40;;;9.53;;
76788;SDS011;65740;52.464;13.446;2023-08-20T10:10:33;9.27;;;8.67;;
76788;SDS011;65740;52.464;13.446;2023-08-20T10:12:59;9.90;;;8.90;;
76788;SDS011;65740;52.464;13.446;2023-08-20T10:15:25;8.30;;;7.70;;
76788;SDS011;65740;52.464;13.446;2023-08-20T10:17:53;8.60;;;7.90;;
76788;SDS011;65740;52.464;13.446;2023-08-20T10:20:18;8.83;;;8.17;;
76788;SDS011;65740;52.464;13.446;2023-08-20T10:22:45;8.03;;;7.33;;
76788;SDS011;65740;52.464;13.446;2023-08-20T10:25:21;7.60;;;7.00;;
76788;SDS011;65740;52.464;13.446;2023-08-20T10:27:48;8.70;;;8.00;;
76788;SDS011;65740;52.464;13.446;2023-08-20T10:30:17;8.50;;;7.90;;
76788;SDS011;65740;52.464;13.446;2023-08-20T10:35:15;7.57;;;7.00;;
76788;SDS011;65740;52.464;13.446;2023-08-20T10:38:05;7.57;;;6.97;;
76788;SDS011;65740;52.464;13.446;2023-08-20T10:46:03;7.87;;;7.27;;
76788;SDS011;65740;52.464;13.446;2023-08-20T10:48:57;7.10;;;6.70;;
76788;SDS011;65740;52.464;13.446;2023-08-20T10:51:27;6.43;;;6.03;;
76788;SDS011;65740;52.464;13.446;2023-08-20T11:01:39;6.70;;;6.30;;
76788;SDS011;65740;52.464;13.446;2023-08-20T11:04:05;6.57;;;6.17;;
76788;SDS011;65740;52.464;13.446;2023-08-20T11:06:32;7.40;;;6.90;;
76788;SDS011;65740;52.464;13.446;2023-08-20T11:08:58;7.43;;;6.90;;
76788;SDS011;65740;52.464;13.446;2023-08-20T11:11:24;6.97;;;6.47;;
76788;SDS011;65740;52.464;13.446;2023-08-20T11:13:50;6.97;;;6.47;;
76788;SDS011;65740;52.464;13.446;2023-08-20T11:16:16;6.87;;;6.47;;
76788;SDS011;65740;52.464;13.446;2023-08-20T11:18:41;7.13;;;6.63;;
76788;SDS011;65740;52.464;13.446;2023-08-20T11:21:07;7.10;;;6.60;;
76788;SDS011;65740;52.464;13.446;2023-08-20T11:23:34;7.03;;;6.60;;
76788;SDS011;65740;52.464;13.446;2023-08-20T11:26:00;7.40;;;6.90;;
76788;SDS011;65740;52.464;13.446;2023-08-20T11:28:27;7.50;;;7.00;;
76788;SDS011;65740;52.464;13.446;2023-08-20T11:30:53;6.73;;;6.33;;
76788;SDS011;65740;52.464;13.446;2023-08-20T11:33:21;7.10;;;6.60;;
76788;SDS011;65740;52.464;13.446;2023-08-20T11:35:47;7.07;;;6.57;;
76788;SDS011;65740;52.464;13.446;2023-08-20T11:38:13;7.30;;;6.70;;
76788;SDS011;65740;52.464;13.446;2023-08-20T11:40:39;7.67;;;6.97;;
76788;SDS011;65740;52.464;13.446;2023-08-20T11:43:05;7.30;;;6.70;;
76788;SDS011;65740;52.464;13.446;2023-08-20T11:45:31;6.63;;;6.13;;
76788;SDS011;65740;52.464;13.446;2023-08-20T11:47:57;6.80;;;6.30;;
76788;SDS011;65740;52.464;13.446;2023-08-20T11:50:23;5.83;;;5.43;;
76788;SDS011;65740;52.464;13.446;2023-08-20T11:52:49;6.47;;;5.97;;
76788;SDS011;65740;52.464;13.446;2023-08-20T11:55:21;6.10;;;5.60;;
76788;SDS011;65740;52.464;13.446;2023-08-20T11:57:54;6.30;;;5.90;;
76788;SDS011;65740;52.464;13.446;2023-08-20T12:00:23;6.67;;;6.17;;
76788;SDS011;65740;52.464;13.446;2023-08-20T12:02:54;6.70;;;6.20;;
76788;SDS011;65740;52.464;13.446;2023-08-20T12:05:29;5.10;;;4.80;;
76788;SDS011;65740;52.464;13.446;2023-08-20T12:10:29;6.00;;;5.60;;
76788;SDS011;65740;52.464;13.446;2023-08-20T12:12:56;5.50;;;5.07;;
76788;SDS011;65740;52.464;13.446;2023-08-20T12:15:22;6.17;;;5.67;;
76788;SDS011;65740;52.464;13.446;2023-08-20T12:17:59;6.57;;;6.07;;
76788;SDS011;65740;52.464;13.446;2023-08-20T12:20:26;5.33;;;4.93;;
76788;SDS011;65740;52.464;13.446;2023-08-20T12:22:55;5.73;;;5.33;;
76788;SDS011;65740;52.464;13.446;2023-08-20T12:25:23;6.13;;;5.63;;
76788;SDS011;65740;52.464;13.446;2023-08-20T12:27:49;5.33;;;4.97;;
76788;SDS011;65740;52.464;13.446;2023-08-20T12:30:14;6.00;;;5.60;;
76788;SDS011;65740;52.464;13.446;2023-08-20T12:32:40;6.30;;;5.90;;
76788;SDS011;65740;52.464;13.446;2023-08-20T12:35:05;6.07;;;5.50;;
76788;SDS011;65740;52.464;13.446;2023-08-20T12:37:31;6.10;;;5.60;;
76788;SDS011;65740;52.464;13.446;2023-08-20T12:39:57;5.90;;;5.50;;
76788;SDS011;65740;52.464;13.446;2023-08-20T12:42:23;5.80;;;5.30;;
76788;SDS011;65740;52.464;13.446;2023-08-20T12:44:48;6.43;;;5.93;;
76788;SDS011;65740;52.464;13.446;2023-08-20T12:47:14;7.17;;;6.57;;
76788;SDS011;65740;52.464;13.446;2023-08-20T12:49:42;6.37;;;5.97;;
76788;SDS011;65740;52.464;13.446;2023-08-20T12:52:12;6.33;;;5.77;;
76788;SDS011;65740;52.464;13.446;2023-08-20T12:54:38;5.80;;;5.40;;
76788;SDS011;65740;52.464;13.446;2023-08-20T12:57:05;5.87;;;5.40;;
76788;SDS011;65740;52.464;13.446;2023-08-20T12:59:32;5.23;;;4.83;;
76788;SDS011;65740;52.464;13.446;2023-08-20T13:02:01;5.60;;;5.07;;
76788;SDS011;65740;52.464;13.446;2023-08-20T13:04:35;8.30;;;4.83;;
76788;SDS011;65740;52.464;13.446;2023-08-20T13:07:05;6.13;;;5.63;;
76788;SDS011;65740;52.464;13.446;2023-08-20T13:09:35;6.30;;;5.90;;
76788;SDS011;65740;52.464;13.446;2023-08-20T13:12:07;6.67;;;6.17;;
76788;SDS011;65740;52.464;13.446;2023-08-20T13:14:39;6.30;;;5.80;;
76788;SDS011;65740;52.464;13.446;2023-08-20T13:17:10;7.20;;;6.60;;
76788;SDS011;65740;52.464;13.446;2023-08-20T13:19:37;7.03;;;6.50;;
76788;SDS011;65740;52.464;13.446;2023-08-20T13:22:06;7.43;;;6.87;;
76788;SDS011;65740;52.464;13.446;2023-08-20T13:24:32;6.50;;;6.10;;
76788;SDS011;65740;52.464;13.446;2023-08-20T13:27:08;7.37;;;6.87;;
76788;SDS011;65740;52.464;13.446;2023-08-20T13:29:43;7.37;;;6.73;;
76788;SDS011;65740;52.464;13.446;2023-08-20T13:32:21;8.13;;;7.43;;
76788;SDS011;65740;52.464;13.446;2023-08-20T13:34:47;8.00;;;7.40;;
76788;SDS011;65740;52.464;13.446;2023-08-20T13:37:12;8.00;;;7.27;;
76788;SDS011;65740;52.464;13.446;2023-08-20T13:39:38;7.03;;;6.53;;
76788;SDS011;65740;52.464;13.446;2023-08-20T13:42:04;7.13;;;6.63;;
76788;SDS011;65740;52.464;13.446;2023-08-20T13:44:29;6.60;;;6.20;;
76788;SDS011;65740;52.464;13.446;2023-08-20T13:46:55;6.83;;;6.43;;
76788;SDS011;65740;52.464;13.446;2023-08-20T13:49:21;6.37;;;6.07;;
76788;SDS011;65740;52.464;13.446;2023-08-20T13:51:46;6.77;;;6.37;;
76788;SDS011;65740;52.464;13.446;2023-08-20T13:54:12;6.33;;;5.97;;
76788;SDS011;65740;52.464;13.446;2023-08-20T13:56:37;6.80;;;6.40;;
76788;SDS011;65740;52.464;13.446;2023-08-20T13:59:03;7.23;;;6.73;;
76788;SDS011;65740;52.464;13.446;2023-08-20T14:01:28;6.37;;;5.97;;
76788;SDS011;65740;52.464;13.446;2023-08-20T14:03:54;6.60;;;6.17;;
76788;SDS011;65740;52.464;13.446;2023-08-20T14:06:20;6.63;;;6.23;;
76788;SDS011;65740;52.464;13.446;2023-08-20T14:08:45;6.47;;;6.07;;
76788;SDS011;65740;52.464;13.446;2023-08-20T14:11:11;6.80;;;6.40;;
76788;SDS011;65740;52.464;13.446;2023-08-20T14:13:36;7.10;;;6.57;;
76788;SDS011;65740;52.464;13.446;2023-08-20T14:16:02;7.40;;;6.90;;
76788;SDS011;65740;52.464;13.446;2023-08-20T14:18:27;6.97;;;6.47;;
76788;SDS011;65740;52.464;13.446;2023-08-20T14:20:53;7.33;;;6.80;;
76788;SDS011;65740;52.464;13.446;2023-08-20T14:23:19;7.93;;;7.43;;
76788;SDS011;65740;52.464;13.446;2023-08-20T14:25:44;7.77;;;7.17;;
76788;SDS011;65740;52.464;13.446;2023-08-20T14:28:10;7.70;;;7.20;;
76788;SDS011;65740;52.464;13.446;2023-08-20T14:30:36;6.67;;;6.27;;
76788;SDS011;65740;52.464;13.446;2023-08-20T14:33:03;7.63;;;7.13;;
76788;SDS011;65740;52.464;13.446;2023-08-20T14:35:29;7.17;;;6.77;;
76788;SDS011;65740;52.464;13.446;2023-08-20T14:37:55;7.97;;;7.47;;
76788;SDS011;65740;52.464;13.446;2023-08-20T14:40:20;8.77;;;8.17;;
76788;SDS011;65740;52.464;13.446;2023-08-20T14:42:46;8.33;;;7.73;;